Archiv-/Tagesdaten

--Timestamp---	Temp	Chill	HIndex	Humid	Dewpt	 Wind 	HiWind	WindDir	Rain 	Barom	Solar	 ET  	 UV 
--------------	----	-----	------	-----	-----	------	------	-------	-----	-----	-----	-----	----
20110505 00:00	4.5	4.5	4.5	72	-0.1	3	6	135	0.0	1022.3	0	0.025	0.0
20110505 00:05	4.4	4.4	4.4	72	-0.2	3	6	135	0.0	1022.4	0	0.000	0.0
20110505 00:10	4.3	4.3	4.3	73	-0.1	2	5	135	0.0	1022.4	0	0.000	0.0
20110505 00:15	4.3	4.3	4.3	73	-0.1	0	2	135	0.0	1022.4	0	0.000	0.0
20110505 00:20	4.2	4.2	4.2	73	-0.2	0	3	135	0.0	1022.4	0	0.000	0.0
20110505 00:25	4.1	4.1	4.1	73	-0.3	2	5	135	0.0	1022.5	0	0.000	0.0
20110505 00:30	4.1	4.1	4.1	73	-0.3	2	6	135	0.0	1022.5	0	0.000	0.0
20110505 00:35	3.9	3.9	3.9	73	-0.5	2	6	135	0.0	1022.5	0	0.000	0.0
20110505 00:40	3.9	3.9	3.9	73	-0.5	2	5	135	0.0	1022.5	0	0.000	0.0
20110505 00:45	3.8	3.8	3.8	73	-0.6	3	8	135	0.0	1022.5	0	0.000	0.0
20110505 00:50	3.7	3.7	3.7	74	-0.5	5	8	158	0.0	1022.5	0	0.000	0.0
20110505 00:55	3.6	3.6	3.6	74	-0.6	3	6	158	0.0	1022.6	0	0.000	0.0
20110505 01:00	3.4	3.4	3.4	75	-0.6	2	5	158	0.0	1022.6	0	0.025	0.0
20110505 01:05	3.4	3.4	3.4	75	-0.6	0	6	158	0.0	1022.4	0	0.000	0.0
20110505 01:10	3.3	3.3	3.3	75	-0.7	2	5	158	0.0	1022.4	0	0.000	0.0
20110505 01:15	3.2	3.2	3.2	75	-0.8	2	3	158	0.0	1022.4	0	0.000	0.0
20110505 01:20	3.2	3.2	3.2	76	-0.7	2	5	158	0.0	1022.4	0	0.000	0.0
20110505 01:25	3.1	3.1	3.1	76	-0.7	2	6	158	0.0	1022.5	0	0.000	0.0
20110505 01:30	3.1	3.1	3.1	76	-0.8	3	6	158	0.0	1022.4	0	0.000	0.0
20110505 01:35	2.9	2.9	2.9	76	-0.9	2	5	158	0.0	1022.6	0	0.000	0.0
20110505 01:40	2.9	2.9	2.9	76	-0.9	0	3	158	0.0	1022.6	0	0.000	0.0
20110505 01:45	2.8	2.8	2.8	77	-0.8	2	5	158	0.0	1022.6	0	0.000	0.0
20110505 01:50	2.7	2.7	2.7	77	-0.9	3	6	158	0.0	1022.6	0	0.000	0.0
20110505 01:55	2.7	2.7	2.7	77	-1.0	2	6	158	0.0	1022.6	0	0.000	0.0
20110505 02:00	2.7	2.7	2.7	77	-1.0	3	6	158	0.0	1022.6	0	0.025	0.0
20110505 02:05	2.6	2.6	2.6	77	-1.1	3	6	158	0.0	1022.4	0	0.000	0.0
20110505 02:10	2.5	2.5	2.5	77	-1.1	2	5	158	0.0	1022.5	0	0.000	0.0
20110505 02:15	2.4	2.4	2.4	77	-1.2	0	2	158	0.0	1022.4	0	0.000	0.0
20110505 02:20	2.4	2.4	2.4	77	-1.2	0	2	158	0.0	1022.4	0	0.000	0.0
20110505 02:25	2.3	2.3	2.3	77	-1.3	2	5	158	0.0	1022.4	0	0.000	0.0
20110505 02:30	2.3	2.3	2.3	77	-1.3	2	5	158	0.0	1022.3	0	0.000	0.0
20110505 02:35	2.2	2.2	2.2	78	-1.2	3	6	158	0.0	1022.3	0	0.000	0.0
20110505 02:40	2.2	2.2	2.2	78	-1.3	2	5	158	0.0	1022.3	0	0.000	0.0
20110505 02:45	2.1	2.1	2.1	78	-1.3	2	5	158	0.0	1022.4	-100000	0.000	0.0
20110505 02:50	2.1	2.1	2.1	78	-1.4	2	5	158	0.0	1022.4	0	0.000	0.0
20110505 02:55	2.1	2.1	2.1	79	-1.2	2	6	158	0.0	1022.4	-100000	0.000	0.0
20110505 03:00	2.0	2.0	2.0	78	-1.4	3	5	158	0.0	1022.4	0	0.025	0.0
20110505 03:05	1.9	1.9	1.9	79	-1.3	0	5	158	0.0	1022.4	0	0.000	0.0
20110505 03:10	1.9	1.9	1.9	79	-1.4	0	5	158	0.0	1022.5	0	0.000	0.0
20110505 03:15	1.8	1.8	1.8	79	-1.4	2	5	158	0.0	1022.5	0	0.000	0.0
20110505 03:20	1.8	1.8	1.8	79	-1.4	3	8	158	0.0	1022.5	0	0.000	0.0
20110505 03:25	1.8	1.8	1.8	79	-1.5	3	6	158	0.0	1022.5	0	0.000	0.0
20110505 03:30	1.8	1.8	1.8	79	-1.5	5	8	180	0.0	1022.5	0	0.000	0.0
20110505 03:35	1.7	1.7	1.7	79	-1.5	5	8	180	0.0	1022.5	0	0.000	0.0
20110505 03:40	1.7	-0.3	1.7	79	-1.6	6	10	202	0.0	1022.5	0	0.000	0.0
20110505 03:45	1.6	1.6	1.6	79	-1.6	5	8	202	0.0	1022.5	0	0.000	0.0
20110505 03:50	1.6	1.6	1.6	79	-1.7	5	8	202	0.0	1022.5	0	0.000	0.0
20110505 03:55	1.6	-0.4	1.6	79	-1.7	6	11	202	0.0	1022.4	0	0.000	0.0
20110505 04:00	1.6	1.6	1.6	79	-1.7	5	10	202	0.0	1022.4	0	0.025	0.0
20110505 04:05	1.5	1.5	1.5	79	-1.7	3	8	202	0.0	1022.5	0	0.000	0.0
20110505 04:10	1.5	1.5	1.5	79	-1.7	3	8	202	0.0	1022.5	0	0.000	0.0
20110505 04:15	1.5	1.5	1.5	79	-1.7	3	6	202	0.0	1022.5	0	0.000	0.0
20110505 04:20	1.4	1.4	1.4	80	-1.7	3	6	202	0.0	1022.5	0	0.000	0.0
20110505 04:25	1.3	1.3	1.3	80	-1.7	3	6	202	0.0	1022.6	0	0.000	0.0
20110505 04:30	1.3	1.3	1.3	80	-1.7	3	8	202	0.0	1022.5	0	0.000	0.0
20110505 04:35	1.3	1.3	1.3	80	-1.7	5	8	202	0.0	1022.5	0	0.000	0.0
20110505 04:40	1.3	1.3	1.3	80	-1.7	5	8	202	0.0	1022.5	0	0.000	0.0
20110505 04:45	1.3	1.3	1.3	81	-1.6	3	8	202	0.0	1022.5	0	0.000	0.0
20110505 04:50	1.2	1.2	1.2	80	-1.8	2	5	202	0.0	1022.5	0	0.000	0.0
20110505 04:55	1.2	1.2	1.2	81	-1.7	2	6	202	0.0	1022.6	0	0.000	0.0
20110505 05:00	1.2	1.2	1.2	81	-1.7	3	5	202	0.0	1022.6	0	0.025	0.0
20110505 05:05	1.1	1.1	1.1	81	-1.8	5	8	202	0.0	1022.8	0	0.000	0.0
20110505 05:10	1.1	1.1	1.1	81	-1.8	5	6	202	0.0	1022.8	0	0.000	0.0
20110505 05:15	1.0	1.0	1.0	81	-1.9	3	8	202	0.0	1022.8	0	0.000	0.0
20110505 05:20	1.1	1.1	1.1	81	-1.8	3	8	202	0.0	1022.8	0	0.000	0.0
20110505 05:25	1.0	1.0	1.0	81	-1.9	2	6	202	0.0	1022.8	0	0.000	0.0
20110505 05:30	1.0	1.0	1.0	82	-1.7	2	6	202	0.0	1022.8	0	0.000	0.0
20110505 05:35	1.0	1.0	1.0	82	-1.7	2	5	202	0.0	1022.9	0	0.000	0.0
20110505 05:40	0.9	0.9	0.9	82	-1.8	0	5	202	0.0	1022.9	0	0.000	0.0
20110505 05:45	0.9	0.9	0.9	82	-1.8	0	3	202	0.0	1022.9	0	0.000	0.0
20110505 05:50	0.9	0.9	0.9	82	-1.8	2	6	202	0.0	1023.1	0	0.000	0.0
20110505 05:55	0.7	0.7	0.7	82	-2.0	2	5	202	0.0	1023.2	3	0.000	0.0
20110505 06:00	0.6	0.6	0.6	82	-2.2	0	3	202	0.0	1023.1	7	0.000	0.0
20110505 06:05	0.4	0.4	0.4	82	-2.3	0	2	202	0.0	1023.3	10	0.000	0.0
20110505 06:10	0.4	0.4	0.4	83	-2.2	0	0	-100000	0.0	1023.3	13	0.000	0.0
20110505 06:15	0.4	0.4	0.4	83	-2.2	0	0	-100000	0.0	1023.4	15	0.000	0.0
20110505 06:20	0.4	0.4	0.4	83	-2.2	0	0	-100000	0.0	1023.4	19	0.000	0.0
20110505 06:25	0.4	0.4	0.4	83	-2.2	0	0	-100000	0.0	1023.5	21	0.000	0.0
20110505 06:30	0.4	0.4	0.4	83	-2.1	0	2	202	0.0	1023.5	24	0.000	0.0
20110505 06:35	0.5	0.5	0.5	84	-1.9	0	3	202	0.0	1023.6	27	0.000	0.0
20110505 06:40	0.6	0.6	0.6	84	-1.8	0	0	-100000	0.0	1023.7	29	0.000	0.0
20110505 06:45	0.7	0.7	0.7	84	-1.7	0	0	-100000	0.0	1023.8	32	0.000	0.0
20110505 06:50	0.9	0.9	0.9	84	-1.5	0	0	-100000	0.0	1023.8	34	0.000	0.0
20110505 06:55	1.1	1.1	1.1	84	-1.3	0	0	-100000	0.0	1023.8	37	0.000	0.0
20110505 07:00	1.3	1.3	1.3	84	-1.1	0	2	202	0.0	1023.8	40	0.000	0.0
20110505 07:05	1.4	1.4	1.4	83	-1.2	0	3	202	0.0	1024.0	42	0.000	0.0
20110505 07:10	1.7	1.7	1.7	82	-1.1	0	3	202	0.0	1023.9	44	0.000	0.0
20110505 07:15	1.8	1.8	1.8	82	-0.9	0	2	202	0.0	1023.9	110	0.000	0.0
20110505 07:20	2.2	2.2	2.2	81	-0.8	0	5	202	0.0	1023.9	152	0.000	0.0
20110505 07:25	2.4	2.4	2.4	80	-0.7	2	5	202	0.0	1023.9	167	0.000	0.0
20110505 07:30	2.7	2.7	2.7	79	-0.6	0	3	202	0.0	1023.8	184	0.000	0.0
20110505 07:35	2.9	2.9	2.9	77	-0.7	2	5	202	0.0	1023.8	201	0.000	0.0
20110505 07:40	3.2	3.2	3.2	76	-0.7	3	10	202	0.0	1023.8	217	0.000	0.3
20110505 07:45	3.3	1.7	3.3	76	-0.5	6	10	202	0.0	1023.9	229	0.000	0.5
20110505 07:50	3.5	3.5	3.5	77	-0.1	2	6	202	0.0	1023.8	243	0.000	0.6
20110505 07:55	3.8	3.8	3.8	76	-0.1	3	6	202	0.0	1023.7	257	0.000	0.6
20110505 08:00	3.9	3.9	3.9	76	0.1	3	8	202	0.0	1023.7	271	0.076	0.7
20110505 08:05	4.3	4.3	4.3	76	0.4	2	6	248	0.0	1023.8	286	0.000	0.7
20110505 08:10	4.6	4.6	4.6	74	0.3	3	6	248	0.0	1023.9	301	0.000	0.8
20110505 08:15	4.9	4.9	4.9	73	0.5	3	10	135	0.0	1023.9	315	0.000	0.8
20110505 08:20	5.2	5.2	5.2	71	0.3	2	6	158	0.0	1023.9	328	0.000	0.9
20110505 08:25	5.4	5.4	5.4	71	0.6	3	6	158	0.0	1023.8	342	0.000	1.0
20110505 08:30	5.7	5.7	5.7	70	0.7	3	6	158	0.0	1023.9	356	0.000	1.0
20110505 08:35	6.0	6.0	6.0	70	0.9	3	10	202	0.0	1023.8	371	0.000	1.1
20110505 08:40	6.2	6.2	6.2	70	1.1	5	10	202	0.0	1023.8	385	0.000	1.2
20110505 08:45	6.4	6.4	6.4	69	1.1	5	8	180	0.0	1023.9	398	0.000	1.3
20110505 08:50	6.5	6.5	6.5	68	1.0	3	10	202	0.0	1023.9	412	0.000	1.3
20110505 08:55	6.7	6.7	6.7	68	1.2	2	6	202	0.0	1023.9	427	0.000	1.4
20110505 09:00	7.1	7.1	7.1	67	1.3	2	5	202	0.0	1023.9	440	0.152	1.5
20110505 09:05	7.2	7.2	7.2	64	0.9	2	5	202	0.0	1024.0	455	0.000	1.6
20110505 09:10	7.4	7.4	7.4	64	1.1	0	2	202	0.0	1024.1	469	0.000	1.7
20110505 09:15	7.9	7.9	7.9	63	1.3	0	2	202	0.0	1024.0	483	0.000	1.8
20110505 09:20	8.6	8.6	8.6	60	1.3	0	2	202	0.0	1024.0	494	0.000	1.9
20110505 09:25	9.1	9.1	9.1	54	0.2	2	6	202	0.0	1023.9	508	0.000	2.1
20110505 09:30	9.1	9.1	9.1	53	-0.0	3	6	202	0.0	1023.9	520	0.000	2.2
20110505 09:35	9.2	9.2	9.2	56	0.8	2	6	202	0.0	1023.9	532	0.000	2.3
20110505 09:40	9.3	9.3	9.3	56	1.0	2	6	202	0.0	1024.0	532	0.000	2.3
20110505 09:45	9.2	9.2	9.2	55	0.7	2	6	202	0.0	1024.0	76	0.000	1.8
20110505 09:50	9.2	9.2	9.2	56	0.8	2	6	90	0.0	1024.0	76	0.000	1.8
20110505 09:55	9.2	9.2	9.2	57	1.1	0	5	112	0.0	1024.0	77	0.000	1.8
20110505 10:00	9.2	9.2	9.2	56	0.9	2	6	112	0.0	1023.9	77	0.152	1.9
20110505 10:05	9.4	9.4	9.4	58	1.5	0	3	112	0.0	1024.2	77	0.000	1.9
20110505 10:10	9.7	9.7	9.7	55	1.1	3	6	45	0.0	1024.1	439	0.000	2.1
20110505 10:15	9.8	9.8	9.8	54	1.0	5	8	22	0.0	1024.1	624	0.000	3.0
20110505 10:20	9.9	9.9	9.9	52	0.5	5	8	68	0.0	1024.1	635	0.000	3.2
20110505 10:25	10.0	10.0	10.0	53	0.9	0	5	68	0.0	1024.1	645	0.000	3.4
20110505 10:30	10.3	10.3	10.3	54	1.4	2	6	45	0.0	1024.1	659	0.000	3.5
20110505 10:35	10.8	10.8	10.8	48	0.2	3	6	90	0.0	1024.2	672	0.000	3.7
20110505 10:40	10.9	10.9	10.9	44	-0.9	2	6	112	0.0	1024.1	686	0.000	3.8
20110505 10:45	11.1	11.1	11.1	49	0.7	6	14	45	0.0	1024.1	685	0.000	3.9
20110505 10:50	11.2	11.2	11.2	48	0.6	5	10	22	0.0	1024.1	-100000	0.000	4.0
20110505 10:55	11.1	11.1	11.1	47	0.2	3	8	292	0.0	1024.1	707	0.000	4.1
20110505 11:00	11.3	11.3	11.3	46	0.1	0	3	292	0.0	1024.1	719	0.305	4.2
20110505 11:05	11.4	11.4	11.4	47	0.5	3	8	22	0.0	1024.2	730	0.000	4.4
20110505 11:10	11.5	11.5	11.5	42	-1.0	5	11	68	0.0	1024.4	744	0.000	4.5
20110505 11:15	11.4	11.4	11.4	41	-1.4	3	8	68	0.0	1024.2	739	0.000	4.6
20110505 11:20	11.6	11.6	11.6	42	-0.9	5	14	68	0.0	1024.2	758	0.000	4.7
20110505 11:25	11.8	11.8	11.8	42	-0.7	5	10	68	0.0	1024.3	770	0.000	4.9
20110505 11:30	11.9	11.9	11.9	40	-1.3	5	10	90	0.0	1024.3	770	0.000	4.9
20110505 11:35	11.9	11.9	11.9	39	-1.6	5	16	180	0.0	1024.2	776	0.000	5.0
20110505 11:40	12.2	12.2	12.2	42	-0.4	3	10	180	0.0	1024.2	782	0.000	5.1
20110505 11:45	12.0	12.0	12.0	40	-1.2	8	14	45	0.0	1024.2	787	0.000	5.2
20110505 11:50	11.9	11.9	11.9	41	-0.9	8	14	45	0.0	1024.2	790	0.000	5.3
20110505 11:55	11.9	11.9	11.9	40	-1.2	5	14	45	0.0	1024.4	793	0.000	5.4
20110505 12:00	11.9	11.9	11.9	40	-1.3	5	13	45	0.0	1024.3	804	0.406	5.5
20110505 12:05	11.9	11.9	11.9	41	-0.9	5	14	22	0.0	1024.4	804	0.000	5.5
20110505 12:10	12.1	12.1	12.1	42	-0.5	5	11	68	0.0	1024.3	807	0.000	5.5
20110505 12:15	12.1	12.1	12.1	41	-0.7	5	11	22	0.0	1024.2	811	0.000	5.6
20110505 12:20	12.1	12.1	12.1	42	-0.4	8	18	22	0.0	1024.2	811	0.000	5.7
20110505 12:25	12.2	12.2	12.2	42	-0.3	3	14	45	0.0	1024.2	822	0.000	5.8
20110505 12:30	12.4	12.4	12.4	40	-0.8	3	11	22	0.0	1024.1	825	0.000	5.9
20110505 12:35	12.4	12.4	12.4	42	-0.1	6	14	45	0.0	1024.1	830	0.000	5.9
20110505 12:40	12.8	12.8	12.8	41	-0.1	5	10	135	0.0	1024.1	823	0.000	5.9
20110505 12:45	12.8	12.8	12.8	39	-0.8	3	11	45	0.0	1024.0	833	0.000	6.0
20110505 12:50	13.0	13.0	13.0	41	0.1	6	18	22	0.0	1024.0	837	0.000	6.0
20110505 12:55	13.1	13.1	13.1	40	-0.2	6	14	22	0.0	1023.9	838	0.000	6.1
20110505 13:00	12.9	12.9	12.9	40	-0.3	5	11	22	0.0	1024.0	846	0.000	6.1
20110505 13:05	13.1	13.1	13.1	40	-0.2	2	6	112	0.0	1023.9	843	0.432	6.2
20110505 13:10	13.1	13.1	13.1	41	0.1	6	16	45	0.0	1023.8	845	0.000	6.2
20110505 13:15	13.3	13.3	13.3	42	0.6	8	14	45	0.0	1023.9	848	0.000	6.3
20110505 13:20	13.3	13.3	13.3	41	0.3	3	10	90	0.0	1023.9	843	0.000	6.2
20110505 13:25	13.2	13.2	13.2	39	-0.4	8	16	45	0.0	1023.8	836	0.000	6.2
20110505 13:30	13.4	13.4	13.4	39	-0.3	5	14	135	0.0	1023.9	839	0.000	6.2
20110505 13:35	13.6	13.6	13.6	39	-0.1	6	11	90	0.0	1023.8	838	0.000	6.2
20110505 13:40	13.6	13.6	13.6	39	-0.1	5	11	68	0.0	1024.0	835	0.000	6.2
20110505 13:45	13.6	13.6	13.6	40	0.3	3	10	90	0.0	1023.8	834	0.000	6.2
20110505 13:50	13.7	13.7	13.7	39	-0.0	8	18	68	0.0	1023.8	830	0.000	6.1
20110505 13:55	13.6	13.6	13.6	40	0.2	6	19	45	0.0	1023.9	825	0.000	6.1
20110505 14:00	13.6	13.6	13.6	40	0.2	5	11	112	0.0	1023.8	819	0.457	6.0
20110505 14:05	13.9	13.9	13.9	39	0.2	5	16	112	0.0	1023.8	820	0.000	6.0
20110505 14:10	13.9	13.9	13.9	40	0.5	6	16	90	0.0	1023.8	817	0.000	5.9
20110505 14:15	13.9	13.9	13.9	40	0.6	5	14	45	0.0	1023.8	812	0.000	5.8
20110505 14:20	14.3	14.3	14.3	42	1.6	2	8	315	0.0	1023.6	804	0.000	5.7
20110505 14:25	14.6	14.6	14.6	38	0.4	6	10	90	0.0	1023.6	801	0.000	5.7
20110505 14:30	14.3	14.3	14.3	38	0.2	10	18	22	0.0	1023.7	797	0.000	5.6
20110505 14:35	14.2	14.2	14.2	41	1.1	6	11	22	0.0	1023.7	795	0.000	5.5
20110505 14:40	14.2	14.2	14.2	40	0.8	6	14	338	0.0	1023.6	790	0.000	5.5
20110505 14:45	14.2	14.2	14.2	38	0.1	6	19	0	0.0	1023.5	779	0.000	5.3
20110505 14:50	14.3	14.3	14.3	39	0.5	10	18	45	0.0	1023.4	775	0.000	5.3
20110505 14:55	14.5	14.5	14.5	37	-0.0	6	16	158	0.0	1023.4	764	0.000	5.1
20110505 15:00	14.5	14.5	14.5	38	0.3	6	14	90	0.0	1023.3	761	0.457	5.0
20110505 15:05	14.4	14.4	14.4	37	-0.1	6	16	90	0.0	1023.4	748	0.000	4.9
20110505 15:10	14.6	14.6	14.6	39	0.8	5	11	90	0.0	1023.3	744	0.000	4.8
20110505 15:15	14.7	14.7	14.7	38	0.5	11	19	22	0.0	1023.3	740	0.000	4.7
20110505 15:20	14.7	14.7	14.7	39	0.9	8	16	45	0.0	1023.3	730	0.000	4.6
20110505 15:25	14.8	14.8	14.8	39	1.0	6	16	112	0.0	1023.2	719	0.000	4.4
20110505 15:30	15.0	15.0	15.0	38	0.8	6	11	112	0.0	1023.0	710	0.000	4.3
20110505 15:35	15.1	15.1	15.1	38	0.8	6	11	112	0.0	1023.0	707	0.000	4.2
20110505 15:40	15.4	15.4	15.4	37	0.8	5	18	112	0.0	1022.9	691	0.000	4.1
20110505 15:45	15.1	15.1	15.1	36	0.1	8	18	68	0.0	1022.9	685	0.000	4.0
20110505 15:50	15.0	15.0	15.0	39	1.2	5	16	68	0.0	1022.9	675	0.000	3.8
20110505 15:55	15.3	15.3	15.3	38	1.1	8	11	135	0.0	1022.8	666	0.000	3.7
20110505 16:00	15.3	15.3	15.3	37	0.7	6	14	112	0.0	1022.8	655	0.432	3.6
20110505 16:05	15.4	15.4	15.4	36	0.4	6	19	90	0.0	1022.8	646	0.000	3.5
20110505 16:10	15.3	15.3	15.3	35	-0.1	6	11	90	0.0	1022.8	635	0.000	3.3
20110505 16:15	15.1	15.1	15.1	37	0.5	6	14	45	0.0	1022.8	628	0.000	3.3
20110505 16:20	15.2	15.2	15.2	37	0.6	8	19	68	0.0	1022.7	617	0.000	3.1
20110505 16:25	15.2	15.2	15.2	36	0.2	5	14	90	0.0	1022.7	599	0.000	3.0
20110505 16:30	15.2	15.2	15.2	36	0.2	8	16	68	0.0	1022.8	590	0.000	2.9
20110505 16:35	15.0	15.0	15.0	37	0.4	6	11	90	0.0	1022.7	575	0.000	2.8
20110505 16:40	15.2	15.2	15.2	38	0.9	8	18	112	0.0	1022.7	564	0.000	2.6
20110505 16:45	15.4	15.4	15.4	36	0.4	6	11	135	0.0	1022.7	554	0.000	2.5
20110505 16:50	15.5	15.5	15.5	36	0.5	8	21	135	0.0	1022.7	540	0.000	2.4
20110505 16:55	15.3	15.3	15.3	37	0.7	8	19	90	0.0	1022.7	532	0.000	2.3
20110505 17:00	15.2	15.2	15.2	37	0.6	8	14	68	0.0	1022.6	516	0.356	2.2
20110505 17:05	15.2	15.2	15.2	37	0.6	10	19	68	0.0	1022.7	504	0.000	2.1
20110505 17:10	15.2	15.2	15.2	36	0.2	6	11	90	0.0	1022.7	492	0.000	2.0
20110505 17:15	15.2	15.2	15.2	36	0.2	5	10	90	0.0	1022.7	477	0.000	1.9
20110505 17:20	15.3	15.3	15.3	38	1.1	6	13	90	0.0	1022.6	464	0.000	1.8
20110505 17:25	15.4	15.4	15.4	36	0.4	8	18	90	0.0	1022.7	451	0.000	1.7
20110505 17:30	15.3	15.3	15.3	36	0.3	8	16	90	0.0	1022.7	442	0.000	1.6
20110505 17:35	15.3	15.3	15.3	37	0.7	8	16	68	0.0	1022.6	424	0.000	1.5
20110505 17:40	15.1	15.1	15.1	37	0.5	6	16	68	0.0	1022.6	416	0.000	1.4
20110505 17:45	15.1	15.1	15.1	37	0.5	8	16	68	0.0	1022.6	406	0.000	1.3
20110505 17:50	15.1	15.1	15.1	36	0.1	10	16	112	0.0	1022.6	392	0.000	1.3
20110505 17:55	15.3	15.3	15.3	36	0.3	8	14	135	0.0	1022.5	380	0.000	1.2
20110505 18:00	15.3	15.3	15.3	37	0.7	6	16	112	0.0	1022.5	355	0.279	1.1
20110505 18:05	15.3	15.3	15.3	36	0.3	5	10	90	0.0	1022.4	335	0.000	1.0
20110505 18:10	15.0	15.0	15.0	37	0.4	8	19	68	0.0	1022.4	347	0.000	1.0
20110505 18:15	15.0	15.0	15.0	37	0.4	10	19	90	0.0	1022.5	330	0.000	0.9
20110505 18:20	15.0	15.0	15.0	37	0.4	6	11	90	0.0	1022.5	296	0.000	0.8
20110505 18:25	15.0	15.0	15.0	38	0.8	6	18	90	0.0	1022.5	290	0.000	0.7
20110505 18:30	15.0	15.0	15.0	38	0.8	6	16	112	0.0	1022.4	296	0.000	0.7
20110505 18:35	15.0	15.0	15.0	38	0.8	8	16	90	0.0	1022.3	284	0.000	0.6
20110505 18:40	15.0	15.0	15.0	37	0.4	6	11	112	0.0	1022.4	268	0.000	0.6
20110505 18:45	15.0	15.0	15.0	37	0.4	8	16	90	0.0	1022.4	246	0.000	0.5
20110505 18:50	14.7	14.7	14.7	37	0.2	8	18	68	0.0	1022.4	153	0.000	0.4
20110505 18:55	14.6	14.6	14.6	38	0.4	11	18	68	0.0	1022.4	94	0.000	0.0
20110505 19:00	14.4	14.4	14.4	37	-0.1	8	18	68	0.0	1022.4	134	0.203	0.0
20110505 19:05	14.3	14.3	14.3	37	-0.2	8	19	68	0.0	1022.2	89	0.000	0.0
20110505 19:10	14.2	14.2	14.2	38	0.1	8	16	68	0.0	1022.2	78	0.000	0.0
20110505 19:15	14.1	14.1	14.1	40	0.7	5	14	135	0.0	1022.3	66	0.000	0.0
20110505 19:20	14.1	14.1	14.1	38	-0.0	5	10	90	0.0	1022.3	55	0.000	0.0
20110505 19:25	13.8	13.8	13.8	38	-0.2	5	11	112	0.0	1022.4	42	0.000	0.0
20110505 19:30	13.7	13.7	13.7	40	0.3	5	10	90	0.0	1022.4	42	0.000	0.0
20110505 19:35	13.6	13.6	13.6	40	0.2	5	10	90	0.0	1022.5	41	0.000	0.0
20110505 19:40	13.4	13.4	13.4	40	0.1	5	8	90	0.0	1022.5	41	0.000	0.0
20110505 19:45	13.3	13.3	13.3	41	0.3	5	11	90	0.0	1022.5	39	0.000	0.0
20110505 19:50	13.2	13.2	13.2	42	0.5	2	6	90	0.0	1022.5	39	0.000	0.0
20110505 19:55	13.0	13.0	13.0	43	0.7	3	6	90	0.0	1022.5	32	0.000	0.0
20110505 20:00	12.8	12.8	12.8	43	0.5	3	6	90	0.0	1022.6	25	0.076	0.0
20110505 20:05	12.6	12.6	12.6	44	0.7	3	6	90	0.0	1022.3	21	0.000	0.0
20110505 20:10	12.4	12.4	12.4	44	0.5	2	5	90	0.0	1022.5	16	0.000	0.0
20110505 20:15	12.2	12.2	12.2	45	0.6	2	5	90	0.0	1022.5	12	0.000	0.0
20110505 20:20	12.1	12.1	12.1	46	0.8	2	5	90	0.0	1022.5	10	0.000	0.0
20110505 20:25	11.9	11.9	11.9	46	0.6	2	5	90	0.0	1022.5	6	0.000	0.0
20110505 20:30	11.8	11.8	11.8	46	0.5	2	6	90	0.0	1022.5	0	0.000	0.0
20110505 20:35	11.6	11.6	11.6	47	0.7	2	6	90	0.0	1022.6	0	0.000	0.0
20110505 20:40	11.4	11.4	11.4	47	0.5	2	6	90	0.0	1022.6	-100000	0.000	0.0
20110505 20:45	11.3	11.3	11.3	48	0.7	2	6	90	0.0	1022.7	-100000	0.000	0.0
20110505 20:50	11.2	11.2	11.2	48	0.6	2	5	90	0.0	1022.7	0	0.000	0.0
20110505 20:55	11.0	11.0	11.0	49	0.7	2	5	90	0.0	1022.9	0	0.000	0.0
20110505 21:00	10.8	10.8	10.8	49	0.5	2	5	90	0.0	1022.9	0	0.025	0.0
20110505 21:05	10.8	10.8	10.8	49	0.5	2	6	90	0.0	1022.7	0	0.000	0.0
20110505 21:10	10.6	10.6	10.6	50	0.6	0	5	90	0.0	1022.8	0	0.000	0.0
20110505 21:15	10.5	10.5	10.5	50	0.5	2	5	90	0.0	1022.8	0	0.000	0.0
20110505 21:20	10.4	10.4	10.4	51	0.7	2	5	90	0.0	1022.8	0	0.000	0.0
20110505 21:25	10.3	10.3	10.3	51	0.6	2	5	90	0.0	1022.9	0	0.000	0.0
20110505 21:30	10.2	10.2	10.2	52	0.8	0	5	90	0.0	1023.0	0	0.000	0.0
20110505 21:35	10.0	10.0	10.0	52	0.6	0	5	90	0.0	1023.1	0	0.000	0.0
20110505 21:40	9.9	9.9	9.9	52	0.5	2	5	90	0.0	1023.1	0	0.000	0.0
20110505 21:45	9.8	9.8	9.8	53	0.7	2	6	90	0.0	1023.1	0	0.000	0.0
20110505 21:50	9.7	9.7	9.7	53	0.6	2	8	112	0.0	1023.1	0	0.000	0.0
20110505 21:55	9.6	9.6	9.6	53	0.4	0	2	112	0.0	1023.2	0	0.000	0.0
20110505 22:00	9.5	9.5	9.5	54	0.7	2	6	112	0.0	1023.2	0	0.025	0.0
20110505 22:05	9.4	9.4	9.4	55	0.8	3	6	112	0.0	1023.1	0	0.000	0.0
20110505 22:10	9.3	9.3	9.3	55	0.8	3	6	135	0.0	1023.1	0	0.000	0.0
20110505 22:15	9.2	9.2	9.2	55	0.7	2	8	135	0.0	1023.1	0	0.000	0.0
20110505 22:20	9.1	9.1	9.1	56	0.8	3	8	112	0.0	1023.1	0	0.000	0.0
20110505 22:25	9.0	8.2	9.0	56	0.7	6	10	112	0.0	1023.1	0	0.000	0.0
20110505 22:30	8.9	8.1	8.9	57	0.8	6	10	112	0.0	1023.1	0	0.000	0.0
20110505 22:35	8.8	8.0	8.8	57	0.7	6	10	135	0.0	1023.1	0	0.000	0.0
20110505 22:40	8.7	7.9	8.7	58	0.9	6	10	112	0.0	1023.1	0	0.000	0.0
20110505 22:45	8.6	7.8	8.6	58	0.8	6	11	135	0.0	1023.0	0	0.000	0.0
20110505 22:50	8.6	7.3	8.6	58	0.8	8	11	135	0.0	1023.1	0	0.000	0.0
20110505 22:55	8.6	7.7	8.6	58	0.8	6	10	112	0.0	1023.2	0	0.000	0.0
20110505 23:00	8.4	8.4	8.4	58	0.7	5	8	112	0.0	1023.2	0	0.051	0.0
20110505 23:05	8.4	8.4	8.4	59	0.8	3	8	135	0.0	1023.1	0	0.000	0.0
20110505 23:10	8.3	8.3	8.3	59	0.7	3	8	135	0.0	1023.1	0	0.000	0.0
20110505 23:15	8.2	8.2	8.2	60	0.9	3	8	112	0.0	1023.1	0	0.000	0.0
20110505 23:20	8.1	8.1	8.1	60	0.8	5	6	112	0.0	1023.1	0	0.000	0.0
20110505 23:25	7.9	7.9	7.9	60	0.7	5	6	112	0.0	1023.2	0	0.000	0.0
20110505 23:30	7.8	7.8	7.8	60	0.6	5	8	112	0.0	1023.1	0	0.000	0.0
20110505 23:35	7.8	7.8	7.8	60	0.5	5	8	112	0.0	1023.1	0	0.000	0.0
20110505 23:40	7.7	7.7	7.7	61	0.7	5	10	112	0.0	1023.1	0	0.000	0.0
20110505 23:45	7.7	6.7	7.7	60	0.4	6	10	112	0.0	1023.1	0	0.000	0.0
20110505 23:50	7.7	6.7	7.7	60	0.4	6	10	135	0.0	1023.1	0	0.000	0.0
20110505 23:55	7.6	6.6	7.6	60	0.3	6	8	135	0.0	1023.1	0	0.000	0.0



Please note the license to use and transfer of this data:
http://creativecommons.org/licenses/by-nc-sa/3.0/deed.en

Bitte beachten sie die Lizenz zur Verwertung und Weitergabe der Daten:
http://creativecommons.org/licenses/by-nc-sa/3.0/deed.de

zurück zur Übersicht der Archivdaten (Monats und Tagesdaten)

Cookies helfen bei der Bereitstellung von Inhalten. Durch die Nutzung dieser Seiten erklärst du dich damit einverstanden, dass Cookies auf deinem Rechner gespeichert werden. Weitere Information